This is the latest recevied weather packets stored in our database for station/object BMCB-1. If no packets are shown the sender has not sent any weather packets the latest 10 day(s).
| Time | Temp. | Humidity | Pressure | Rain* | Wind** | Luminosity | Snow |
|---|---|---|---|---|---|---|---|
| 1777966822 | 11.11° C | 99% | 1014.4 hPa | 0.76 mm | - | 52 W/m² | - |
| 1777966232 | 11.11° C | 98% | 1014.4 hPa | 0.76 mm | - | 58 W/m² | - |
| 1777965634 | 11.67° C | 99% | 1014.4 hPa | 0.76 mm | - | 94 W/m² | - |
| 1777963841 | 11.11° C | 99% | 1014.6 hPa | 0.51 mm | - | 18 W/m² | - |
| 1777962023 | 11.67° C | 98% | 1014.6 hPa | 0.25 mm | - | 22 W/m² | - |
| 1777960831 | 11.67° C | 98% | 1014.5 hPa | 0.51 mm | - | 16 W/m² | - |
| 1777956624 | 11.11° C | 98% | 1014.5 hPa | 0.25 mm | - | 18 W/m² | - |
| 1777956031 | 11.11° C | 98% | 1014.6 hPa | 0.25 mm | - | 8 W/m² | - |
| 1777951223 | 11.11° C | 98% | 1015.1 hPa | 0 mm | - | 0 W/m² | - |
| 1777944043 | 10.56° C | 98% | 1015.4 hPa | 0 mm | - | 0 W/m² | - |
| 1777941042 | 10.56° C | 98% | 1015.8 hPa | 0 mm | - | 0 W/m² | - |
| 1777939842 | 10.56° C | 98% | 1016.1 hPa | 0 mm | - | 0 W/m² | - |
| 1777931446 | 9.44° C | 97% | 1017.2 hPa | 0 mm | - | 0 W/m² | - |
| 1777912844 | 13.89° C | 88% | 1016.9 hPa | 0 mm | - | 106 W/m² | - |
| 1777908645 | 14.44° C | 91% | 1017 hPa | 0 mm | - | 202 W/m² | - |
| 1777906243 | 15° C | 88% | 1017 hPa | 0.51 mm | - | 282 W/m² | - |
| 1777899044 | 15° C | 86% | 1017.7 hPa | 0 mm | - | 202 W/m² | - |
| 1777897841 | 15° C | 87% | 1017.7 hPa | 0 mm | - | 154 W/m² | - |
| 1777893643 | 15° C | 88% | 1018 hPa | 0 mm | - | 286 W/m² | - |
| 1777891842 | 14.44° C | 88% | 1018.4 hPa | 0 mm | - | 272 W/m² | - |
| 1777889441 | 13.89° C | 90% | 1018.6 hPa | 0 mm | - | 232 W/m² | - |
| 1777888841 | 13.33° C | 91% | 1018.6 hPa | 0 mm | - | 158 W/m² | - |
| 1777872041 | 10° C | 99% | 1017.7 hPa | 0 mm | - | 28 W/m² | - |
| 1777869043 | 8.33° C | 98% | 1017.6 hPa | 0 mm | - | 12 W/m² | - |
| 1777849844 | 11.11° C | 95% | 1017.2 hPa | 0 mm | - | 0 W/m² | - |
* Rain latest hour (hover to see other rain measurements)
** Current wind speed in m/s (hover to see current wind gust speed)